KERI/ERI METAR and TAF weather

Enter ICAO airport designator
Station Type Date Time Source
KERI METAR 2021/09/16 09:51 UTC NOAA

KERI 160951Z 00000KT 5SM HZ CLR 14/11 A3015 RMK AO2 SLP208 T01390111


Station Type Date Time Source
KERI Decoded METAR 2021/09/16 09:51 UTC NOAA

ERIE INTERNATIONAL AIRPORT, PA, United States (KERI) 42-05N 080-11W 222M
Sep 16, 2021 - 05:51 AM EDT / 2021.09.16 0951 UTC
Wind: Calm:0
Visibility: 5 mile(s):0
Sky conditions: clear
Weather: haze
Temperature: 57.0 F (13.9 C)
Dew Point: 52.0 F (11.1 C)
Relative Humidity: 83%
Pressure (altimeter): 30.15 in. Hg (1020 hPa)
ob: KERI 160951Z 00000KT 5SM HZ CLR 14/11 A3015 RMK AO2 SLP208 T01390111
cycle: 10

Station Type Date Time Source
KERI TAF 2021/09/16 06:24 UTC NOAA

TAF KERI 160523Z 1606/1706 17005KT P6SM SKC
FM161500 08006KT P6SM FEW250
FM170300 14005KT P6SM FEW250

Example: see airport list